createdAt,value
2017-09-20T04:43:19.361Z,58.90
2017-09-20T04:48:14.600Z,59.00
2017-09-20T04:50:42.445Z,58.90
2017-09-20T04:53:10.018Z,58.90
2017-09-20T04:58:05.338Z,59.50
2017-09-20T05:00:33.001Z,59.00
2017-09-20T05:05:28.422Z,58.90
2017-09-20T05:07:56.290Z,59.60
2017-09-20T05:12:52.018Z,62.70
2017-09-20T05:15:19.679Z,63.50
2017-09-20T05:17:47.339Z,62.40
2017-09-20T05:22:42.660Z,61.10
2017-09-20T05:25:10.322Z,61.30
2017-09-20T05:30:05.952Z,60.30
2017-09-20T05:32:33.565Z,60.10
2017-09-20T05:35:01.274Z,60.30
2017-09-20T05:37:28.932Z,60.10
2017-09-20T05:39:56.595Z,60.00
2017-09-20T05:44:52.014Z,59.80
2017-09-20T05:47:19.676Z,59.60
2017-09-20T05:49:47.441Z,59.80
2017-09-20T05:52:15.099Z,59.80
2017-09-20T05:59:50.253Z,59.80
2017-09-20T06:02:17.926Z,59.60
2017-09-20T06:04:45.588Z,59.20
2017-09-20T06:09:41.100Z,59.00
2017-09-20T06:12:08.759Z,59.00
2017-09-20T06:14:36.331Z,58.70
2017-09-20T06:19:31.844Z,59.20
2017-09-20T06:21:59.503Z,58.90
2017-09-20T06:24:28.100Z,58.90
2017-09-20T06:26:55.762Z,58.70
2017-09-20T06:31:51.182Z,58.70
2017-09-20T06:34:18.847Z,58.80
2017-09-20T06:36:47.532Z,58.70
2017-09-20T06:39:15.293Z,58.70
2017-09-20T06:41:42.954Z,58.60
2017-09-20T06:46:39.109Z,58.60
2017-09-20T06:49:06.845Z,58.60
2017-09-20T06:51:34.415Z,58.50
2017-09-20T06:54:02.176Z,58.90
2017-09-20T06:56:29.839Z,58.60
2017-09-20T07:01:25.262Z,58.90
2017-09-20T07:03:52.923Z,58.50
2017-09-20T07:06:20.539Z,58.80
2017-09-20T07:08:48.241Z,58.50
2017-09-20T07:11:15.903Z,58.50
2017-09-20T07:13:43.567Z,58.40
2017-09-20T07:18:39.091Z,58.50
2017-09-20T07:23:34.515Z,58.10
2017-09-20T07:28:41.309Z,57.90
2017-09-20T07:31:09.783Z,57.90
2017-09-20T07:33:37.462Z,57.60
2017-09-20T07:36:05.932Z,57.50
2017-09-20T07:38:33.584Z,57.30
2017-09-20T07:41:01.246Z,57.30
2017-09-20T07:45:56.871Z,57.40
2017-09-20T07:48:24.626Z,57.50
2017-09-20T07:53:20.675Z,57.10
2017-09-20T07:58:16.900Z,57.20
2017-09-20T08:03:12.135Z,56.90
2017-09-20T08:05:39.985Z,56.60
2017-09-20T08:08:07.557Z,56.40
2017-09-20T08:13:03.069Z,56.20
2017-09-20T08:15:30.595Z,55.30
2017-09-20T08:17:59.209Z,55.70
2017-09-20T08:20:26.888Z,55.30
2017-09-20T08:22:54.545Z,55.50
2017-09-20T08:25:22.600Z,55.40
2017-09-20T08:30:17.936Z,55.60
2017-09-20T08:32:45.800Z,55.80
2017-09-20T08:37:41.122Z,56.00
2017-09-20T08:40:08.783Z,56.10
2017-09-20T08:45:04.206Z,56.10
2017-09-20T08:47:31.867Z,55.90
2017-09-20T08:49:59.629Z,55.70
2017-09-20T08:52:27.290Z,55.60
2017-09-20T09:00:01.931Z,54.80
2017-09-20T09:02:29.813Z,54.90
2017-09-20T09:04:57.470Z,54.40
2017-09-20T09:09:52.908Z,54.10
2017-09-20T09:12:20.516Z,54.30
2017-09-20T09:14:48.213Z,54.40
2017-09-20T09:19:44.459Z,54.10
2017-09-20T09:22:12.121Z,54.10
2017-09-20T09:27:07.543Z,54.10
2017-09-20T09:29:35.203Z,54.00
2017-09-20T09:32:03.273Z,54.00
2017-09-20T09:34:30.932Z,53.90
2017-09-20T09:39:26.253Z,53.70
2017-09-20T09:41:54.923Z,53.40
2017-09-20T09:46:50.569Z,53.50
2017-09-20T09:49:18.227Z,53.20
2017-09-20T09:51:45.899Z,52.70
2017-09-20T09:56:41.297Z,52.50
2017-09-20T09:59:08.972Z,52.40
2017-09-20T10:01:36.652Z,52.60
2017-09-20T10:04:04.293Z,52.70
2017-09-20T10:06:31.990Z,52.90
2017-09-20T10:08:59.717Z,52.70
2017-09-20T10:11:27.378Z,52.60
2017-09-20T10:16:22.808Z,51.90
2017-09-20T10:18:51.591Z,51.60
2017-09-20T10:23:47.099Z,51.50
2017-09-20T10:28:53.799Z,50.90
2017-09-20T10:31:21.554Z,50.60
2017-09-20T10:36:17.893Z,49.10
2017-09-20T10:38:45.467Z,45.70
2017-09-20T10:41:13.129Z,47.10
2017-09-20T10:46:08.559Z,45.80
2017-09-20T10:48:36.210Z,46.40
2017-09-20T10:51:04.061Z,46.60
2017-09-20T10:53:31.729Z,48.10
2017-09-20T10:58:27.261Z,49.70
2017-09-20T11:00:54.926Z,50.40
2017-09-20T11:05:50.345Z,50.80
2017-09-20T11:08:18.007Z,51.20
2017-09-20T11:10:45.756Z,51.60
2017-09-20T11:15:41.090Z,52.20
2017-09-20T11:18:08.736Z,52.50
2017-09-20T11:20:37.334Z,52.80
2017-09-20T11:25:32.653Z,52.90
2017-09-20T11:28:00.417Z,53.00
2017-09-20T11:30:28.166Z,52.90
2017-09-20T11:35:24.320Z,52.90
2017-09-20T11:37:51.980Z,52.80
2017-09-20T11:42:47.342Z,53.00
2017-09-20T11:45:15.886Z,53.80
2017-09-20T11:50:11.307Z,53.20
2017-09-20T11:55:18.098Z,53.20
2017-09-20T11:57:45.758Z,53.30
2017-09-20T12:02:41.180Z,52.70
2017-09-20T12:05:08.840Z,52.70
2017-09-20T12:07:37.334Z,52.80
2017-09-20T12:10:05.083Z,52.90
2017-09-20T12:12:32.746Z,53.00
2017-09-20T12:15:00.410Z,52.80
2017-09-20T12:19:55.814Z,52.70
2017-09-20T12:22:24.205Z,52.50
2017-09-20T12:24:51.968Z,52.20
2017-09-20T12:27:19.628Z,52.40
2017-09-20T12:29:47.376Z,52.60
2017-09-20T12:34:42.800Z,52.90
2017-09-20T12:37:10.377Z,53.00
2017-09-20T12:39:39.042Z,53.20
2017-09-20T12:44:34.481Z,52.90
2017-09-20T12:49:29.904Z,52.90
2017-09-20T12:51:57.518Z,52.90
2017-09-20T12:54:25.231Z,52.90
2017-09-20T12:59:20.634Z,53.00
2017-09-20T13:01:48.314Z,52.90
2017-09-20T13:04:17.200Z,52.80
2017-09-20T13:09:12.631Z,52.80
2017-09-20T13:11:40.290Z,52.70
2017-09-20T13:14:07.945Z,52.60
2017-09-20T13:19:03.376Z,52.90
2017-09-20T13:24:11.268Z,52.50
2017-09-20T13:26:38.795Z,52.40
2017-09-20T13:29:06.590Z,52.40
2017-09-20T13:34:01.821Z,52.20
2017-09-20T13:36:29.487Z,52.30
2017-09-20T13:41:24.907Z,52.80
2017-09-20T13:43:52.572Z,52.80
2017-09-20T13:46:20.330Z,52.90
2017-09-20T13:48:47.990Z,52.80
2017-09-20T13:53:43.501Z,52.90
2017-09-20T13:56:11.162Z,52.90
2017-09-20T13:58:38.735Z,52.90
2017-09-20T14:03:34.162Z,53.20
2017-09-20T14:06:01.819Z,53.00
2017-09-20T14:08:29.581Z,53.10
2017-09-20T14:10:58.060Z,53.20
2017-09-20T14:13:25.809Z,53.00
2017-09-20T14:15:53.486Z,53.00
2017-09-20T14:18:21.147Z,53.00
2017-09-20T14:23:17.495Z,53.00
2017-09-20T14:25:45.970Z,53.00
2017-09-20T14:30:42.301Z,53.00
2017-09-20T14:33:09.961Z,52.90
2017-09-20T14:38:05.298Z,52.90
2017-09-20T14:40:32.956Z,52.80
2017-09-20T14:43:00.624Z,53.00
2017-09-20T14:53:02.928Z,53.30
2017-09-20T14:55:30.491Z,53.20
2017-09-20T15:00:26.733Z,53.20
2017-09-20T15:02:54.404Z,53.40
2017-09-20T15:07:49.817Z,53.70
2017-09-20T15:10:17.478Z,53.70
2017-09-20T15:12:45.960Z,53.90
2017-09-20T15:15:13.721Z,53.80
2017-09-20T15:17:41.382Z,54.00
2017-09-20T15:20:09.044Z,54.00
2017-09-20T15:25:05.284Z,54.30
2017-09-20T15:27:32.900Z,54.40
2017-09-20T15:30:00.613Z,54.40
2017-09-20T15:35:08.712Z,54.40
2017-09-20T15:37:36.289Z,54.60
2017-09-20T15:42:31.708Z,54.20
2017-09-20T15:44:59.367Z,54.40
2017-09-20T15:47:27.029Z,54.50
2017-09-20T15:52:22.455Z,54.70
2017-09-20T15:54:50.114Z,54.80
2017-09-20T15:57:17.965Z,55.00
2017-09-20T15:59:45.535Z,55.30
2017-09-20T16:04:41.046Z,55.30
2017-09-20T16:07:08.708Z,55.40
2017-09-20T16:09:36.278Z,55.40
2017-09-20T16:14:32.420Z,55.70
2017-09-20T16:22:08.616Z,55.60
2017-09-20T16:29:31.695Z,55.70
2017-09-20T16:31:59.462Z,55.60
2017-09-20T16:34:27.119Z,56.20
2017-09-20T16:39:22.544Z,55.60
2017-09-20T16:41:50.212Z,55.70
2017-09-20T16:44:17.820Z,55.80
2017-09-20T16:46:45.525Z,55.90
2017-09-20T16:49:13.322Z,55.90
2017-09-20T16:51:40.936Z,56.00
2017-09-20T16:56:36.268Z,56.10
2017-09-20T16:59:03.952Z,55.70
2017-09-20T17:01:31.691Z,55.90
2017-09-20T17:03:59.309Z,56.00
2017-09-20T17:06:27.100Z,56.80
2017-09-20T17:08:54.778Z,58.60
2017-09-20T17:11:22.441Z,59.30
2017-09-20T17:13:50.063Z,59.50
2017-09-20T17:16:17.844Z,59.70
2017-09-20T17:18:45.418Z,59.70
2017-09-20T17:21:13.079Z,59.90
2017-09-20T17:26:08.708Z,59.90
2017-09-20T17:28:36.366Z,60.20
2017-09-20T17:33:31.789Z,60.30
2017-09-20T17:35:59.452Z,60.30
2017-09-20T17:38:27.216Z,60.30
2017-09-20T17:40:54.962Z,60.40
2017-09-20T17:45:50.302Z,60.60
2017-09-20T17:50:57.087Z,61.40
2017-09-20T17:53:24.748Z,61.40
2017-09-20T17:58:20.172Z,60.50
2017-09-20T18:00:48.758Z,60.40
2017-09-20T18:03:16.399Z,60.50
2017-09-20T18:05:45.113Z,60.60
2017-09-20T18:08:12.760Z,60.60
2017-09-20T18:10:40.419Z,60.60
2017-09-20T18:13:08.198Z,60.70
2017-09-20T18:15:35.842Z,60.80
2017-09-20T18:20:31.559Z,60.80
2017-09-20T18:22:59.952Z,60.90
2017-09-20T18:25:27.700Z,60.90
2017-09-20T18:27:55.463Z,60.90
2017-09-20T18:30:23.122Z,60.80
2017-09-20T18:35:18.459Z,61.10
2017-09-20T18:37:46.345Z,60.80
2017-09-20T18:40:13.985Z,61.10
2017-09-20T18:42:41.835Z,60.90
2017-09-20T18:45:09.615Z,60.80
2017-09-20T18:50:05.248Z,60.60
2017-09-20T18:52:32.860Z,60.60
2017-09-20T18:55:00.562Z,60.80
2017-09-20T18:57:28.325Z,60.80
2017-09-20T18:59:59.118Z,60.50
2017-09-20T19:02:27.619Z,60.50
2017-09-20T19:04:55.080Z,60.60
2017-09-20T19:07:22.847Z,60.40
2017-09-20T19:09:50.503Z,60.40
2017-09-20T19:12:18.267Z,60.50
2017-09-20T19:17:24.968Z,61.00
2017-09-20T19:22:20.378Z,60.70
2017-09-20T19:24:48.142Z,60.30
2017-09-20T19:27:15.690Z,60.40
2017-09-20T19:29:43.461Z,60.40
2017-09-20T19:32:13.927Z,60.30
2017-09-20T19:34:41.449Z,60.10
2017-09-20T19:37:09.058Z,60.30
2017-09-20T19:39:38.860Z,60.10
2017-09-20T19:42:06.500Z,60.10
2017-09-20T19:44:35.085Z,60.30
2017-09-20T19:47:03.152Z,60.10
2017-09-20T19:49:31.144Z,60.20
2017-09-20T19:51:59.442Z,60.20
2017-09-20T19:54:28.184Z,60.30
2017-09-20T19:56:55.903Z,60.20
2017-09-20T19:59:24.475Z,60.20
2017-09-20T20:01:52.081Z,60.10
2017-09-20T20:06:49.814Z,60.40
2017-09-20T20:11:46.786Z,60.40
2017-09-20T20:14:15.746Z,60.30
2017-09-20T20:16:44.929Z,60.30
2017-09-20T20:19:13.208Z,60.30
2017-09-20T20:24:09.423Z,60.30
2017-09-20T20:26:37.087Z,60.20
2017-09-20T20:31:33.215Z,60.10
2017-09-20T20:36:28.537Z,60.10
2017-09-20T20:38:56.386Z,60.00
2017-09-20T20:41:24.050Z,60.00
2017-09-20T20:48:58.603Z,60.00
2017-09-20T20:51:26.397Z,60.10
2017-09-20T20:53:54.024Z,59.70
2017-09-20T20:56:23.608Z,59.70
2017-09-20T20:58:51.788Z,59.60
2017-09-20T21:01:19.463Z,59.70
2017-09-20T21:03:46.997Z,59.90
2017-09-20T21:06:14.942Z,60.00
2017-09-20T21:08:42.573Z,59.70
2017-09-20T21:11:10.202Z,58.50
2017-09-20T21:13:37.874Z,57.90
2017-09-20T21:16:05.487Z,58.20
2017-09-20T21:18:33.100Z,56.30
2017-09-20T21:21:00.869Z,56.50
2017-09-20T21:23:29.431Z,56.90
2017-09-20T21:25:57.193Z,56.90
2017-09-20T21:28:24.959Z,57.10
2017-09-20T21:30:52.615Z,57.30
2017-09-20T21:33:20.199Z,57.40
2017-09-20T21:38:15.616Z,57.70
2017-09-20T21:40:44.092Z,57.80
2017-09-20T21:45:39.518Z,58.10
2017-09-20T21:48:07.266Z,58.20
2017-09-20T21:50:34.942Z,58.30
2017-09-20T21:53:02.598Z,58.50
2017-09-20T21:57:58.114Z,58.60
2017-09-20T22:00:25.684Z,58.60
2017-09-20T22:02:53.431Z,58.50
2017-09-20T22:07:49.481Z,58.50
2017-09-20T22:12:44.996Z,58.50
2017-09-20T22:18:17.501Z,58.40
2017-09-20T22:20:57.362Z,58.50
2017-09-20T22:23:36.681Z,58.40
2017-09-20T22:26:15.984Z,58.30
2017-09-20T22:28:43.680Z,58.30
2017-09-20T22:31:11.337Z,58.70
2017-09-20T22:33:39.085Z,58.70
2017-09-20T22:38:34.319Z,58.90
2017-09-20T22:41:01.980Z,58.90
2017-09-20T22:45:57.404Z,59.00
2017-09-20T22:48:25.066Z,58.90
2017-09-20T22:50:52.919Z,59.00
2017-09-20T22:53:20.445Z,59.00
2017-09-20T22:55:48.147Z,58.90
2017-09-20T22:58:16.729Z,58.90
2017-09-20T23:00:44.388Z,58.80
2017-09-20T23:05:39.900Z,58.90
2017-09-20T23:08:07.474Z,58.90
2017-09-20T23:10:35.131Z,59.00
2017-09-20T23:17:58.220Z,59.00
2017-09-20T23:20:25.982Z,59.00
2017-09-20T23:22:54.460Z,59.10
2017-09-20T23:25:22.123Z,59.00
2017-09-20T23:27:49.883Z,59.00
2017-09-20T23:30:18.263Z,59.00
2017-09-20T23:32:45.923Z,58.90
2017-09-20T23:37:41.319Z,59.00
2017-09-20T23:40:09.094Z,59.10
2017-09-20T23:42:36.767Z,59.00
2017-09-20T23:47:43.536Z,58.90
2017-09-20T23:50:11.307Z,58.90
2017-09-20T23:52:39.087Z,58.60
2017-09-20T23:57:34.506Z,58.60
